sensor_id;sensor_type;location;lat;lon;timestamp;temperature;humidity
6822;DHT22;3449;48.728;8.968;2023-06-04T00:00:41;15.00;99.90
6822;DHT22;3449;48.728;8.968;2023-06-04T00:03:08;14.90;99.90
6822;DHT22;3449;48.728;8.968;2023-06-04T00:05:35;14.80;99.90
6822;DHT22;3449;48.728;8.968;2023-06-04T00:08:02;14.80;99.90
6822;DHT22;3449;48.728;8.968;2023-06-04T00:10:31;14.70;99.90
6822;DHT22;3449;48.728;8.968;2023-06-04T00:12:59;14.70;99.90
6822;DHT22;3449;48.728;8.968;2023-06-04T00:15:26;14.70;99.90
6822;DHT22;3449;48.728;8.968;2023-06-04T00:17:53;14.70;99.90
6822;DHT22;3449;48.728;8.968;2023-06-04T00:20:22;14.60;99.90
6822;DHT22;3449;48.728;8.968;2023-06-04T00:22:49;14.60;99.90
6822;DHT22;3449;48.728;8.968;2023-06-04T00:25:16;14.60;99.90
6822;DHT22;3449;48.728;8.968;2023-06-04T00:27:44;14.50;99.90
6822;DHT22;3449;48.728;8.968;2023-06-04T00:30:12;14.40;99.90
6822;DHT22;3449;48.728;8.968;2023-06-04T00:32:39;14.30;99.90
6822;DHT22;3449;48.728;8.968;2023-06-04T00:35:07;14.30;99.90
6822;DHT22;3449;48.728;8.968;2023-06-04T00:37:35;14.20;99.90
6822;DHT22;3449;48.728;8.968;2023-06-04T00:40:01;14.20;99.90
6822;DHT22;3449;48.728;8.968;2023-06-04T00:42:29;14.20;99.90
6822;DHT22;3449;48.728;8.968;2023-06-04T00:44:57;14.10;99.90
6822;DHT22;3449;48.728;8.968;2023-06-04T00:47:25;14.00;99.90
6822;DHT22;3449;48.728;8.968;2023-06-04T00:49:56;14.00;99.90
6822;DHT22;3449;48.728;8.968;2023-06-04T00:52:24;13.90;99.90
6822;DHT22;3449;48.728;8.968;2023-06-04T00:54:51;13.90;99.90
6822;DHT22;3449;48.728;8.968;2023-06-04T00:57:20;13.90;99.90
6822;DHT22;3449;48.728;8.968;2023-06-04T00:59:47;13.90;99.90
6822;DHT22;3449;48.728;8.968;2023-06-04T01:02:18;13.90;99.90
6822;DHT22;3449;48.728;8.968;2023-06-04T01:04:49;13.80;99.90
6822;DHT22;3449;48.728;8.968;2023-06-04T01:07:19;13.80;99.90
6822;DHT22;3449;48.728;8.968;2023-06-04T01:09:46;13.80;99.90
6822;DHT22;3449;48.728;8.968;2023-06-04T01:12:13;13.80;99.90
6822;DHT22;3449;48.728;8.968;2023-06-04T01:14:41;13.70;99.90
6822;DHT22;3449;48.728;8.968;2023-06-04T01:17:13;13.70;99.90
6822;DHT22;3449;48.728;8.968;2023-06-04T01:19:57;13.70;99.90
6822;DHT22;3449;48.728;8.968;2023-06-04T01:22:34;13.70;99.90
6822;DHT22;3449;48.728;8.968;2023-06-04T01:25:04;13.60;99.90
6822;DHT22;3449;48.728;8.968;2023-06-04T01:27:31;13.60;99.90
6822;DHT22;3449;48.728;8.968;2023-06-04T01:29:58;13.50;99.90
6822;DHT22;3449;48.728;8.968;2023-06-04T01:32:26;13.50;99.90
6822;DHT22;3449;48.728;8.968;2023-06-04T01:34:55;13.50;99.90
6822;DHT22;3449;48.728;8.968;2023-06-04T01:37:22;13.50;99.90
6822;DHT22;3449;48.728;8.968;2023-06-04T01:39:49;13.40;99.90
6822;DHT22;3449;48.728;8.968;2023-06-04T01:42:16;13.40;99.90
6822;DHT22;3449;48.728;8.968;2023-06-04T01:44:43;13.40;99.90
6822;DHT22;3449;48.728;8.968;2023-06-04T01:47:09;13.30;99.90
6822;DHT22;3449;48.728;8.968;2023-06-04T01:49:36;13.20;99.90
6822;DHT22;3449;48.728;8.968;2023-06-04T01:52:05;13.20;99.90
6822;DHT22;3449;48.728;8.968;2023-06-04T01:54:32;13.20;99.90
6822;DHT22;3449;48.728;8.968;2023-06-04T01:56:59;13.20;99.90
6822;DHT22;3449;48.728;8.968;2023-06-04T01:59:26;13.10;99.90
6822;DHT22;3449;48.728;8.968;2023-06-04T02:01:53;13.10;99.90
6822;DHT22;3449;48.728;8.968;2023-06-04T02:04:20;13.00;99.90
6822;DHT22;3449;48.728;8.968;2023-06-04T02:06:47;13.00;99.90
6822;DHT22;3449;48.728;8.968;2023-06-04T02:09:15;13.00;99.90
6822;DHT22;3449;48.728;8.968;2023-06-04T02:11:42;12.90;99.90
6822;DHT22;3449;48.728;8.968;2023-06-04T02:14:09;12.90;99.90
6822;DHT22;3449;48.728;8.968;2023-06-04T02:16:36;12.80;99.90
6822;DHT22;3449;48.728;8.968;2023-06-04T02:19:03;12.80;99.90
6822;DHT22;3449;48.728;8.968;2023-06-04T02:21:30;12.70;99.90
6822;DHT22;3449;48.728;8.968;2023-06-04T02:23:57;12.70;99.90
6822;DHT22;3449;48.728;8.968;2023-06-04T02:26:25;12.60;99.90
6822;DHT22;3449;48.728;8.968;2023-06-04T02:28:52;12.60;99.90
6822;DHT22;3449;48.728;8.968;2023-06-04T02:31:19;12.60;99.90
6822;DHT22;3449;48.728;8.968;2023-06-04T02:33:46;12.60;99.90
6822;DHT22;3449;48.728;8.968;2023-06-04T02:36:13;12.60;99.90
6822;DHT22;3449;48.728;8.968;2023-06-04T02:38:41;12.60;99.90
6822;DHT22;3449;48.728;8.968;2023-06-04T02:41:07;12.60;99.90
6822;DHT22;3449;48.728;8.968;2023-06-04T02:43:36;12.60;99.90
6822;DHT22;3449;48.728;8.968;2023-06-04T02:46:03;12.50;99.90
6822;DHT22;3449;48.728;8.968;2023-06-04T02:48:31;12.50;99.90
6822;DHT22;3449;48.728;8.968;2023-06-04T02:50:58;12.50;99.90
6822;DHT22;3449;48.728;8.968;2023-06-04T02:53:25;12.40;99.90
6822;DHT22;3449;48.728;8.968;2023-06-04T02:55:52;12.40;99.90
6822;DHT22;3449;48.728;8.968;2023-06-04T02:58:19;12.30;99.90
6822;DHT22;3449;48.728;8.968;2023-06-04T03:00:48;12.20;99.90
6822;DHT22;3449;48.728;8.968;2023-06-04T03:03:15;12.20;99.90
6822;DHT22;3449;48.728;8.968;2023-06-04T03:05:42;12.10;99.90
6822;DHT22;3449;48.728;8.968;2023-06-04T03:08:09;12.10;99.90
6822;DHT22;3449;48.728;8.968;2023-06-04T03:10:36;12.10;99.90
6822;DHT22;3449;48.728;8.968;2023-06-04T03:13:03;12.10;99.90
6822;DHT22;3449;48.728;8.968;2023-06-04T03:15:30;12.00;99.90
6822;DHT22;3449;48.728;8.968;2023-06-04T03:17:58;12.10;99.90
6822;DHT22;3449;48.728;8.968;2023-06-04T03:20:25;12.00;99.90
6822;DHT22;3449;48.728;8.968;2023-06-04T03:22:52;12.00;99.90
6822;DHT22;3449;48.728;8.968;2023-06-04T03:25:18;12.00;99.90
6822;DHT22;3449;48.728;8.968;2023-06-04T03:27:45;12.00;99.90
6822;DHT22;3449;48.728;8.968;2023-06-04T03:30:12;12.00;99.90
6822;DHT22;3449;48.728;8.968;2023-06-04T03:32:39;12.00;99.90
6822;DHT22;3449;48.728;8.968;2023-06-04T03:35:09;12.00;99.90
6822;DHT22;3449;48.728;8.968;2023-06-04T03:37:35;12.00;99.90
6822;DHT22;3449;48.728;8.968;2023-06-04T03:40:04;11.90;99.90
6822;DHT22;3449;48.728;8.968;2023-06-04T03:42:31;11.90;99.90
6822;DHT22;3449;48.728;8.968;2023-06-04T03:44:58;11.90;99.90
6822;DHT22;3449;48.728;8.968;2023-06-04T03:47:25;11.90;99.90
6822;DHT22;3449;48.728;8.968;2023-06-04T03:49:52;11.90;99.90
6822;DHT22;3449;48.728;8.968;2023-06-04T03:52:20;11.90;99.90
6822;DHT22;3449;48.728;8.968;2023-06-04T03:54:47;11.90;99.90
6822;DHT22;3449;48.728;8.968;2023-06-04T03:57:14;11.90;99.90
6822;DHT22;3449;48.728;8.968;2023-06-04T03:59:40;11.90;99.90
6822;DHT22;3449;48.728;8.968;2023-06-04T04:02:07;11.90;99.90
6822;DHT22;3449;48.728;8.968;2023-06-04T04:04:34;11.90;99.90
6822;DHT22;3449;48.728;8.968;2023-06-04T04:07:01;11.90;99.90
6822;DHT22;3449;48.728;8.968;2023-06-04T04:09:29;11.80;99.90
6822;DHT22;3449;48.728;8.968;2023-06-04T04:11:56;11.80;99.90
6822;DHT22;3449;48.728;8.968;2023-06-04T04:14:23;11.90;99.90
6822;DHT22;3449;48.728;8.968;2023-06-04T04:16:50;11.80;99.90
6822;DHT22;3449;48.728;8.968;2023-06-04T04:19:16;11.90;99.90
6822;DHT22;3449;48.728;8.968;2023-06-04T04:21:43;11.90;99.90
6822;DHT22;3449;48.728;8.968;2023-06-04T04:24:22;12.00;99.90
6822;DHT22;3449;48.728;8.968;2023-06-04T04:26:50;12.00;99.90
6822;DHT22;3449;48.728;8.968;2023-06-04T04:29:19;12.00;99.90
6822;DHT22;3449;48.728;8.968;2023-06-04T04:31:48;12.00;99.90
6822;DHT22;3449;48.728;8.968;2023-06-04T04:34:15;12.00;99.90
6822;DHT22;3449;48.728;8.968;2023-06-04T04:36:42;12.00;99.90
6822;DHT22;3449;48.728;8.968;2023-06-04T04:39:09;12.10;99.90
6822;DHT22;3449;48.728;8.968;2023-06-04T04:41:37;12.20;99.90
6822;DHT22;3449;48.728;8.968;2023-06-04T04:44:05;12.30;99.90
6822;DHT22;3449;48.728;8.968;2023-06-04T04:46:32;12.30;99.90
6822;DHT22;3449;48.728;8.968;2023-06-04T04:48:59;12.40;99.90
6822;DHT22;3449;48.728;8.968;2023-06-04T04:51:26;12.50;99.90
6822;DHT22;3449;48.728;8.968;2023-06-04T04:53:53;12.60;99.90
6822;DHT22;3449;48.728;8.968;2023-06-04T04:56:20;12.70;99.90
6822;DHT22;3449;48.728;8.968;2023-06-04T04:58:47;12.70;99.90
6822;DHT22;3449;48.728;8.968;2023-06-04T05:01:16;12.70;99.90
6822;DHT22;3449;48.728;8.968;2023-06-04T05:03:43;12.80;99.90
6822;DHT22;3449;48.728;8.968;2023-06-04T05:06:10;12.80;99.90
6822;DHT22;3449;48.728;8.968;2023-06-04T05:08:37;12.80;99.90
6822;DHT22;3449;48.728;8.968;2023-06-04T05:11:04;12.80;99.90
6822;DHT22;3449;48.728;8.968;2023-06-04T05:13:31;12.80;99.90
6822;DHT22;3449;48.728;8.968;2023-06-04T05:15:57;12.80;99.90
6822;DHT22;3449;48.728;8.968;2023-06-04T05:18:26;13.00;99.90
6822;DHT22;3449;48.728;8.968;2023-06-04T05:20:55;13.00;99.90
6822;DHT22;3449;48.728;8.968;2023-06-04T05:23:23;13.20;99.90
6822;DHT22;3449;48.728;8.968;2023-06-04T05:25:50;13.30;99.90
6822;DHT22;3449;48.728;8.968;2023-06-04T05:28:17;13.50;99.90
6822;DHT22;3449;48.728;8.968;2023-06-04T05:30:44;13.50;99.90
6822;DHT22;3449;48.728;8.968;2023-06-04T05:33:14;13.60;99.90
6822;DHT22;3449;48.728;8.968;2023-06-04T05:35:46;13.80;99.90
6822;DHT22;3449;48.728;8.968;2023-06-04T05:38:13;14.00;99.90
6822;DHT22;3449;48.728;8.968;2023-06-04T05:40:42;14.10;99.90
6822;DHT22;3449;48.728;8.968;2023-06-04T05:43:09;14.30;99.90
6822;DHT22;3449;48.728;8.968;2023-06-04T05:45:36;14.50;99.90
6822;DHT22;3449;48.728;8.968;2023-06-04T05:48:04;14.60;99.90
6822;DHT22;3449;48.728;8.968;2023-06-04T05:50:31;14.60;99.90
6822;DHT22;3449;48.728;8.968;2023-06-04T05:53:00;14.70;99.90
6822;DHT22;3449;48.728;8.968;2023-06-04T05:55:27;14.70;99.90
6822;DHT22;3449;48.728;8.968;2023-06-04T05:57:54;14.80;99.90
6822;DHT22;3449;48.728;8.968;2023-06-04T06:00:22;14.90;99.90
6822;DHT22;3449;48.728;8.968;2023-06-04T06:02:49;15.00;99.90
6822;DHT22;3449;48.728;8.968;2023-06-04T06:05:17;15.20;99.90
6822;DHT22;3449;48.728;8.968;2023-06-04T06:07:44;15.40;99.90
6822;DHT22;3449;48.728;8.968;2023-06-04T06:10:13;15.50;99.90
6822;DHT22;3449;48.728;8.968;2023-06-04T06:12:41;15.60;99.90
6822;DHT22;3449;48.728;8.968;2023-06-04T06:15:09;15.40;99.90
6822;DHT22;3449;48.728;8.968;2023-06-04T06:17:37;15.50;99.90
6822;DHT22;3449;48.728;8.968;2023-06-04T06:20:05;15.80;99.90
6822;DHT22;3449;48.728;8.968;2023-06-04T06:22:33;16.00;99.90
6822;DHT22;3449;48.728;8.968;2023-06-04T06:25:01;16.20;99.90
6822;DHT22;3449;48.728;8.968;2023-06-04T06:27:30;16.30;99.90
6822;DHT22;3449;48.728;8.968;2023-06-04T06:29:56;16.50;99.90
6822;DHT22;3449;48.728;8.968;2023-06-04T06:32:23;16.70;99.90
6822;DHT22;3449;48.728;8.968;2023-06-04T06:34:50;16.80;99.90
6822;DHT22;3449;48.728;8.968;2023-06-04T06:37:17;17.00;99.90
6822;DHT22;3449;48.728;8.968;2023-06-04T06:39:44;17.00;99.90
6822;DHT22;3449;48.728;8.968;2023-06-04T06:42:11;17.10;99.90
6822;DHT22;3449;48.728;8.968;2023-06-04T06:44:39;17.00;99.90
6822;DHT22;3449;48.728;8.968;2023-06-04T06:47:06;17.20;99.90
6822;DHT22;3449;48.728;8.968;2023-06-04T06:49:33;17.20;99.90
6822;DHT22;3449;48.728;8.968;2023-06-04T06:52:00;17.30;99.90
6822;DHT22;3449;48.728;8.968;2023-06-04T06:54:27;17.50;99.90
6822;DHT22;3449;48.728;8.968;2023-06-04T06:56:54;17.80;99.90
6822;DHT22;3449;48.728;8.968;2023-06-04T06:59:20;18.00;99.90
6822;DHT22;3449;48.728;8.968;2023-06-04T07:01:49;18.20;99.90
6822;DHT22;3449;48.728;8.968;2023-06-04T07:04:16;18.10;99.90
6822;DHT22;3449;48.728;8.968;2023-06-04T07:06:43;18.30;99.90
6822;DHT22;3449;48.728;8.968;2023-06-04T07:09:10;18.50;99.90
6822;DHT22;3449;48.728;8.968;2023-06-04T07:11:37;18.40;99.90
6822;DHT22;3449;48.728;8.968;2023-06-04T07:14:03;18.50;99.90
6822;DHT22;3449;48.728;8.968;2023-06-04T07:16:30;18.60;99.90
6822;DHT22;3449;48.728;8.968;2023-06-04T07:19:01;18.80;99.90
6822;DHT22;3449;48.728;8.968;2023-06-04T07:21:28;19.10;99.90
6822;DHT22;3449;48.728;8.968;2023-06-04T07:23:54;19.20;99.90
6822;DHT22;3449;48.728;8.968;2023-06-04T07:26:21;19.30;99.90
6822;DHT22;3449;48.728;8.968;2023-06-04T07:28:48;19.60;99.90
6822;DHT22;3449;48.728;8.968;2023-06-04T07:31:15;19.80;99.90
6822;DHT22;3449;48.728;8.968;2023-06-04T07:33:43;19.60;99.90
6822;DHT22;3449;48.728;8.968;2023-06-04T07:36:12;19.60;99.90
6822;DHT22;3449;48.728;8.968;2023-06-04T07:38:39;19.60;99.90
6822;DHT22;3449;48.728;8.968;2023-06-04T07:41:06;19.70;99.90
6822;DHT22;3449;48.728;8.968;2023-06-04T07:43:33;19.90;99.90
6822;DHT22;3449;48.728;8.968;2023-06-04T07:46:00;20.00;99.90
6822;DHT22;3449;48.728;8.968;2023-06-04T07:48:27;20.00;99.90
6822;DHT22;3449;48.728;8.968;2023-06-04T07:50:57;20.00;99.90
6822;DHT22;3449;48.728;8.968;2023-06-04T07:53:25;20.30;99.90
6822;DHT22;3449;48.728;8.968;2023-06-04T07:55:53;20.40;99.90
6822;DHT22;3449;48.728;8.968;2023-06-04T07:58:20;20.60;99.90
6822;DHT22;3449;48.728;8.968;2023-06-04T08:00:47;20.80;99.90
6822;DHT22;3449;48.728;8.968;2023-06-04T08:03:14;20.80;99.90
6822;DHT22;3449;48.728;8.968;2023-06-04T08:05:41;20.90;99.90
6822;DHT22;3449;48.728;8.968;2023-06-04T08:08:08;20.90;99.90
6822;DHT22;3449;48.728;8.968;2023-06-04T08:10:36;21.00;99.90
6822;DHT22;3449;48.728;8.968;2023-06-04T08:13:03;20.90;99.90
6822;DHT22;3449;48.728;8.968;2023-06-04T08:15:30;20.90;99.90
6822;DHT22;3449;48.728;8.968;2023-06-04T08:17:57;21.20;99.90
6822;DHT22;3449;48.728;8.968;2023-06-04T08:20:24;21.00;99.90
6822;DHT22;3449;48.728;8.968;2023-06-04T08:22:51;21.30;99.90
6822;DHT22;3449;48.728;8.968;2023-06-04T08:25:18;21.60;99.90
6822;DHT22;3449;48.728;8.968;2023-06-04T08:27:46;21.80;99.90
6822;DHT22;3449;48.728;8.968;2023-06-04T08:30:13;22.10;99.90
6822;DHT22;3449;48.728;8.968;2023-06-04T08:32:40;22.10;99.90
6822;DHT22;3449;48.728;8.968;2023-06-04T08:35:07;22.00;99.90
6822;DHT22;3449;48.728;8.968;2023-06-04T08:37:35;21.90;99.90
6822;DHT22;3449;48.728;8.968;2023-06-04T08:40:02;22.10;99.90
6822;DHT22;3449;48.728;8.968;2023-06-04T08:42:38;22.00;99.90
6822;DHT22;3449;48.728;8.968;2023-06-04T08:45:10;22.00;99.90
6822;DHT22;3449;48.728;8.968;2023-06-04T08:47:38;22.00;99.90
6822;DHT22;3449;48.728;8.968;2023-06-04T08:50:10;21.90;99.90
6822;DHT22;3449;48.728;8.968;2023-06-04T08:52:37;21.90;99.90
6822;DHT22;3449;48.728;8.968;2023-06-04T08:55:05;22.10;99.90
6822;DHT22;3449;48.728;8.968;2023-06-04T08:57:33;22.50;99.90
6822;DHT22;3449;48.728;8.968;2023-06-04T09:00:02;22.70;99.90
6822;DHT22;3449;48.728;8.968;2023-06-04T09:02:34;22.90;99.90
6822;DHT22;3449;48.728;8.968;2023-06-04T09:05:03;22.60;99.90
6822;DHT22;3449;48.728;8.968;2023-06-04T09:07:31;22.50;99.90
6822;DHT22;3449;48.728;8.968;2023-06-04T09:10:02;22.60;99.90
6822;DHT22;3449;48.728;8.968;2023-06-04T09:12:30;22.70;99.90
6822;DHT22;3449;48.728;8.968;2023-06-04T09:14:58;23.00;99.90
6822;DHT22;3449;48.728;8.968;2023-06-04T09:17:25;22.80;99.90
6822;DHT22;3449;48.728;8.968;2023-06-04T09:19:53;23.30;99.90
6822;DHT22;3449;48.728;8.968;2023-06-04T09:22:31;23.60;99.90
6822;DHT22;3449;48.728;8.968;2023-06-04T09:24:58;23.70;99.90
6822;DHT22;3449;48.728;8.968;2023-06-04T09:27:25;23.80;99.90
6822;DHT22;3449;48.728;8.968;2023-06-04T09:29:55;23.90;99.90
6822;DHT22;3449;48.728;8.968;2023-06-04T09:32:22;24.00;99.90
6822;DHT22;3449;48.728;8.968;2023-06-04T09:34:49;24.10;99.90
6822;DHT22;3449;48.728;8.968;2023-06-04T09:37:20;23.80;99.90
6822;DHT22;3449;48.728;8.968;2023-06-04T09:39:53;24.00;99.90
6822;DHT22;3449;48.728;8.968;2023-06-04T09:42:20;23.90;99.90
6822;DHT22;3449;48.728;8.968;2023-06-04T09:44:48;23.70;99.90
6822;DHT22;3449;48.728;8.968;2023-06-04T09:47:15;23.50;99.90
6822;DHT22;3449;48.728;8.968;2023-06-04T09:49:42;23.90;99.90
6822;DHT22;3449;48.728;8.968;2023-06-04T09:52:09;24.40;99.90
6822;DHT22;3449;48.728;8.968;2023-06-04T09:54:38;24.60;99.90
6822;DHT22;3449;48.728;8.968;2023-06-04T09:57:13;24.60;99.90
6822;DHT22;3449;48.728;8.968;2023-06-04T09:59:43;24.40;99.90
6822;DHT22;3449;48.728;8.968;2023-06-04T10:02:11;23.70;99.90
6822;DHT22;3449;48.728;8.968;2023-06-04T10:04:40;23.70;99.90
6822;DHT22;3449;48.728;8.968;2023-06-04T10:07:08;24.10;99.90
6822;DHT22;3449;48.728;8.968;2023-06-04T10:09:38;24.60;99.90
6822;DHT22;3449;48.728;8.968;2023-06-04T10:12:11;24.40;99.90
6822;DHT22;3449;48.728;8.968;2023-06-04T10:14:43;23.90;99.90
6822;DHT22;3449;48.728;8.968;2023-06-04T10:17:12;24.00;99.90
6822;DHT22;3449;48.728;8.968;2023-06-04T10:19:43;24.40;99.90
6822;DHT22;3449;48.728;8.968;2023-06-04T10:22:10;24.40;99.90
6822;DHT22;3449;48.728;8.968;2023-06-04T10:24:39;24.00;99.90
6822;DHT22;3449;48.728;8.968;2023-06-04T10:27:06;24.20;99.90
6822;DHT22;3449;48.728;8.968;2023-06-04T10:29:36;24.40;99.90
6822;DHT22;3449;48.728;8.968;2023-06-04T10:32:04;24.60;99.90
6822;DHT22;3449;48.728;8.968;2023-06-04T10:34:31;24.80;99.90
6822;DHT22;3449;48.728;8.968;2023-06-04T10:36:58;24.80;99.90
6822;DHT22;3449;48.728;8.968;2023-06-04T10:39:25;25.30;99.90
6822;DHT22;3449;48.728;8.968;2023-06-04T10:42:03;26.00;99.90
6822;DHT22;3449;48.728;8.968;2023-06-04T10:44:31;25.90;99.90
6822;DHT22;3449;48.728;8.968;2023-06-04T10:46:58;25.80;99.90
6822;DHT22;3449;48.728;8.968;2023-06-04T10:49:28;25.30;99.90
6822;DHT22;3449;48.728;8.968;2023-06-04T10:51:56;25.00;99.90
6822;DHT22;3449;48.728;8.968;2023-06-04T10:54:29;24.90;99.90
6822;DHT22;3449;48.728;8.968;2023-06-04T10:56:56;24.80;99.90
6822;DHT22;3449;48.728;8.968;2023-06-04T10:59:24;25.50;99.90
6822;DHT22;3449;48.728;8.968;2023-06-04T11:01:51;26.40;99.90
6822;DHT22;3449;48.728;8.968;2023-06-04T11:04:19;26.60;99.90
6822;DHT22;3449;48.728;8.968;2023-06-04T11:06:47;26.30;99.90
6822;DHT22;3449;48.728;8.968;2023-06-04T11:09:14;25.90;99.90
6822;DHT22;3449;48.728;8.968;2023-06-04T11:11:42;26.10;99.90
6822;DHT22;3449;48.728;8.968;2023-06-04T11:14:10;26.20;99.90
6822;DHT22;3449;48.728;8.968;2023-06-04T11:16:39;26.70;99.90
6822;DHT22;3449;48.728;8.968;2023-06-04T11:19:06;26.10;99.90
6822;DHT22;3449;48.728;8.968;2023-06-04T11:21:34;26.30;99.90
6822;DHT22;3449;48.728;8.968;2023-06-04T11:24:03;26.40;99.90
6822;DHT22;3449;48.728;8.968;2023-06-04T11:26:31;26.80;99.90
6822;DHT22;3449;48.728;8.968;2023-06-04T11:28:58;26.20;99.90
6822;DHT22;3449;48.728;8.968;2023-06-04T11:31:25;26.40;99.90
6822;DHT22;3449;48.728;8.968;2023-06-04T11:33:53;26.60;99.90
6822;DHT22;3449;48.728;8.968;2023-06-04T11:36:24;26.10;99.90
6822;DHT22;3449;48.728;8.968;2023-06-04T11:38:56;26.30;99.90
6822;DHT22;3449;48.728;8.968;2023-06-04T11:41:24;26.40;99.90
6822;DHT22;3449;48.728;8.968;2023-06-04T11:43:51;26.50;99.90
6822;DHT22;3449;48.728;8.968;2023-06-04T11:46:19;26.50;99.90
6822;DHT22;3449;48.728;8.968;2023-06-04T11:48:46;26.60;99.90
6822;DHT22;3449;48.728;8.968;2023-06-04T11:51:14;26.50;99.90
6822;DHT22;3449;48.728;8.968;2023-06-04T11:53:42;26.80;99.90
6822;DHT22;3449;48.728;8.968;2023-06-04T11:56:09;27.10;99.90
6822;DHT22;3449;48.728;8.968;2023-06-04T11:58:37;27.40;99.90
6822;DHT22;3449;48.728;8.968;2023-06-04T12:01:04;27.50;99.90
6822;DHT22;3449;48.728;8.968;2023-06-04T12:03:35;27.10;99.90
6822;DHT22;3449;48.728;8.968;2023-06-04T12:06:14;27.30;99.90
6822;DHT22;3449;48.728;8.968;2023-06-04T12:08:49;27.00;99.90
6822;DHT22;3449;48.728;8.968;2023-06-04T12:11:27;26.70;99.90
6822;DHT22;3449;48.728;8.968;2023-06-04T12:13:57;27.00;99.90
6822;DHT22;3449;48.728;8.968;2023-06-04T12:16:25;26.10;99.90
6822;DHT22;3449;48.728;8.968;2023-06-04T12:18:52;26.50;99.90
6822;DHT22;3449;48.728;8.968;2023-06-04T12:21:23;26.20;99.90
6822;DHT22;3449;48.728;8.968;2023-06-04T12:23:54;26.50;99.90
6822;DHT22;3449;48.728;8.968;2023-06-04T12:26:22;27.20;99.90
6822;DHT22;3449;48.728;8.968;2023-06-04T12:29:07;27.80;99.90
6822;DHT22;3449;48.728;8.968;2023-06-04T12:31:35;28.20;99.90
6822;DHT22;3449;48.728;8.968;2023-06-04T12:34:02;28.30;99.90
6822;DHT22;3449;48.728;8.968;2023-06-04T12:36:31;27.70;99.90
6822;DHT22;3449;48.728;8.968;2023-06-04T12:39:01;27.00;99.90
6822;DHT22;3449;48.728;8.968;2023-06-04T12:41:28;27.10;99.90
6822;DHT22;3449;48.728;8.968;2023-06-04T12:43:56;26.70;99.90
6822;DHT22;3449;48.728;8.968;2023-06-04T12:46:23;27.20;99.90
6822;DHT22;3449;48.728;8.968;2023-06-04T12:48:51;27.40;99.90
6822;DHT22;3449;48.728;8.968;2023-06-04T12:51:18;27.30;99.90
6822;DHT22;3449;48.728;8.968;2023-06-04T12:53:46;27.40;99.90
6822;DHT22;3449;48.728;8.968;2023-06-04T12:56:14;27.30;99.90
6822;DHT22;3449;48.728;8.968;2023-06-04T12:58:41;27.40;99.80
6822;DHT22;3449;48.728;8.968;2023-06-04T13:01:08;27.50;99.10
6822;DHT22;3449;48.728;8.968;2023-06-04T13:03:36;27.50;99.80
6822;DHT22;3449;48.728;8.968;2023-06-04T13:06:04;27.60;99.80
6822;DHT22;3449;48.728;8.968;2023-06-04T13:08:31;27.80;98.90
6822;DHT22;3449;48.728;8.968;2023-06-04T13:10:59;27.90;98.90
6822;DHT22;3449;48.728;8.968;2023-06-04T13:13:27;28.30;98.70
6822;DHT22;3449;48.728;8.968;2023-06-04T13:15:55;28.50;99.50
6822;DHT22;3449;48.728;8.968;2023-06-04T13:18:22;28.60;96.70
6822;DHT22;3449;48.728;8.968;2023-06-04T13:20:49;28.70;96.10
6822;DHT22;3449;48.728;8.968;2023-06-04T13:23:16;28.80;96.50
6822;DHT22;3449;48.728;8.968;2023-06-04T13:25:42;29.10;97.20
6822;DHT22;3449;48.728;8.968;2023-06-04T13:28:11;29.30;96.60
6822;DHT22;3449;48.728;8.968;2023-06-04T13:30:38;29.40;96.20
6822;DHT22;3449;48.728;8.968;2023-06-04T13:33:05;28.00;95.30
6822;DHT22;3449;48.728;8.968;2023-06-04T13:35:32;27.20;95.30
6822;DHT22;3449;48.728;8.968;2023-06-04T13:37:59;27.70;96.40
6822;DHT22;3449;48.728;8.968;2023-06-04T13:40:26;28.00;96.50
6822;DHT22;3449;48.728;8.968;2023-06-04T13:42:52;28.00;96.00
6822;DHT22;3449;48.728;8.968;2023-06-04T13:45:21;28.30;96.80
6822;DHT22;3449;48.728;8.968;2023-06-04T13:47:47;28.60;96.30
6822;DHT22;3449;48.728;8.968;2023-06-04T13:50:15;28.60;95.90
6822;DHT22;3449;48.728;8.968;2023-06-04T13:52:43;28.60;95.30
6822;DHT22;3449;48.728;8.968;2023-06-04T13:55:11;28.90;94.60
6822;DHT22;3449;48.728;8.968;2023-06-04T13:57:38;28.80;94.70
6822;DHT22;3449;48.728;8.968;2023-06-04T14:00:07;28.70;94.90
6822;DHT22;3449;48.728;8.968;2023-06-04T14:02:36;28.50;94.60
6822;DHT22;3449;48.728;8.968;2023-06-04T14:05:05;28.50;94.50
6822;DHT22;3449;48.728;8.968;2023-06-04T14:07:32;28.30;95.00
6822;DHT22;3449;48.728;8.968;2023-06-04T14:09:59;27.90;94.80
6822;DHT22;3449;48.728;8.968;2023-06-04T14:12:26;27.40;94.70
6822;DHT22;3449;48.728;8.968;2023-06-04T14:14:53;27.10;95.10
6822;DHT22;3449;48.728;8.968;2023-06-04T14:17:20;26.80;95.20
6822;DHT22;3449;48.728;8.968;2023-06-04T14:19:48;26.50;95.30
6822;DHT22;3449;48.728;8.968;2023-06-04T14:22:15;26.50;94.70
6822;DHT22;3449;48.728;8.968;2023-06-04T14:24:42;26.80;94.20
6822;DHT22;3449;48.728;8.968;2023-06-04T14:27:09;26.80;94.70
6822;DHT22;3449;48.728;8.968;2023-06-04T14:29:36;26.90;95.10
6822;DHT22;3449;48.728;8.968;2023-06-04T14:32:03;26.70;94.10
6822;DHT22;3449;48.728;8.968;2023-06-04T14:34:30;26.50;94.40
6822;DHT22;3449;48.728;8.968;2023-06-04T14:36:59;26.30;94.90
6822;DHT22;3449;48.728;8.968;2023-06-04T14:39:27;26.20;95.10
6822;DHT22;3449;48.728;8.968;2023-06-04T14:41:54;26.80;94.90
6822;DHT22;3449;48.728;8.968;2023-06-04T14:44:20;27.00;95.10
6822;DHT22;3449;48.728;8.968;2023-06-04T14:46:49;27.70;95.30
6822;DHT22;3449;48.728;8.968;2023-06-04T14:49:17;27.50;94.10
6822;DHT22;3449;48.728;8.968;2023-06-04T14:51:45;27.50;93.50
6822;DHT22;3449;48.728;8.968;2023-06-04T14:54:13;27.30;93.10
6822;DHT22;3449;48.728;8.968;2023-06-04T14:56:40;27.00;92.80
6822;DHT22;3449;48.728;8.968;2023-06-04T14:59:07;26.50;94.00
6822;DHT22;3449;48.728;8.968;2023-06-04T15:01:36;26.10;93.70
6822;DHT22;3449;48.728;8.968;2023-06-04T15:04:03;25.70;93.40
6822;DHT22;3449;48.728;8.968;2023-06-04T15:06:30;25.60;93.80
6822;DHT22;3449;48.728;8.968;2023-06-04T15:08:57;25.50;93.20
6822;DHT22;3449;48.728;8.968;2023-06-04T15:11:26;25.60;93.20
6822;DHT22;3449;48.728;8.968;2023-06-04T15:13:53;25.50;92.80
6822;DHT22;3449;48.728;8.968;2023-06-04T15:16:20;25.60;93.20
6822;DHT22;3449;48.728;8.968;2023-06-04T15:18:48;26.10;93.50
6822;DHT22;3449;48.728;8.968;2023-06-04T15:21:15;26.50;93.40
6822;DHT22;3449;48.728;8.968;2023-06-04T15:23:42;26.70;93.00
6822;DHT22;3449;48.728;8.968;2023-06-04T15:26:10;26.80;92.20
6822;DHT22;3449;48.728;8.968;2023-06-04T15:28:38;26.80;92.90
6822;DHT22;3449;48.728;8.968;2023-06-04T15:31:05;26.50;92.10
6822;DHT22;3449;48.728;8.968;2023-06-04T15:33:32;26.80;92.00
6822;DHT22;3449;48.728;8.968;2023-06-04T15:35:59;27.00;91.30
6822;DHT22;3449;48.728;8.968;2023-06-04T15:38:26;27.00;91.30
6822;DHT22;3449;48.728;8.968;2023-06-04T15:40:53;27.30;91.50
6822;DHT22;3449;48.728;8.968;2023-06-04T15:43:20;27.20;91.20
6822;DHT22;3449;48.728;8.968;2023-06-04T15:45:48;26.90;91.10
6822;DHT22;3449;48.728;8.968;2023-06-04T15:48:15;26.70;91.40
6822;DHT22;3449;48.728;8.968;2023-06-04T15:50:42;26.50;91.40
6822;DHT22;3449;48.728;8.968;2023-06-04T15:53:09;26.50;91.70
6822;DHT22;3449;48.728;8.968;2023-06-04T15:55:36;26.50;91.50
6822;DHT22;3449;48.728;8.968;2023-06-04T15:58:02;26.50;91.70
6822;DHT22;3449;48.728;8.968;2023-06-04T16:00:29;26.20;91.20
6822;DHT22;3449;48.728;8.968;2023-06-04T16:02:58;26.40;91.00
6822;DHT22;3449;48.728;8.968;2023-06-04T16:05:24;26.20;91.20